createdAt,value
2019-04-21T00:00:14.837Z,12.26
2019-04-21T00:02:44.265Z,12.20
2019-04-21T00:05:43.124Z,12.11
2019-04-21T00:08:15.115Z,12.07
2019-04-21T00:10:38.266Z,12.04
2019-04-21T00:12:56.113Z,12.00
2019-04-21T00:15:24.389Z,11.94
2019-04-21T00:17:52.705Z,11.85
2019-04-21T00:20:31.080Z,11.77
2019-04-21T00:23:15.302Z,11.72
2019-04-21T00:25:39.884Z,11.66
2019-04-21T00:28:16.878Z,11.62
2019-04-21T00:30:44.259Z,11.54
2019-04-21T00:33:06.829Z,11.48
2019-04-21T00:35:31.049Z,11.46
2019-04-21T00:38:18.162Z,11.46
2019-04-21T00:40:53.893Z,11.41
2019-04-21T00:43:19.598Z,11.33
2019-04-21T00:45:44.922Z,11.24
2019-04-21T00:48:23.734Z,11.18
2019-04-21T00:51:10.948Z,11.09
2019-04-21T00:53:51.838Z,11.05
2019-04-21T00:56:15.674Z,11.04
2019-04-21T00:58:48.618Z,11.03
2019-04-21T01:01:15.211Z,11.00
2019-04-21T01:03:51.946Z,10.95
2019-04-21T01:06:22.652Z,10.88
2019-04-21T01:08:45.788Z,10.80
2019-04-21T01:11:20.747Z,10.71
2019-04-21T01:13:51.749Z,10.56
2019-04-21T01:16:27.007Z,10.40
2019-04-21T01:18:51.251Z,10.23
2019-04-21T01:21:13.375Z,10.11
2019-04-21T01:23:33.685Z,10.08
2019-04-21T01:26:17.765Z,10.06
2019-04-21T01:28:51.890Z,10.03
2019-04-21T01:31:22.942Z,9.96
2019-04-21T01:33:59.564Z,9.87
2019-04-21T01:36:24.208Z,9.75
2019-04-21T01:39:05.312Z,9.69
2019-04-21T01:41:37.176Z,9.69
2019-04-21T01:44:01.171Z,9.70
2019-04-21T01:46:29.653Z,9.70
2019-04-21T01:48:58.025Z,9.71
2019-04-21T01:51:32.696Z,9.72
2019-04-21T01:54:22.245Z,9.73
2019-04-21T01:56:57.324Z,9.72
2019-04-21T01:59:18.481Z,9.71
2019-04-21T02:02:00.341Z,9.74
2019-04-21T02:04:36.382Z,9.73
2019-04-21T02:07:07.389Z,9.75
2019-04-21T02:09:38.409Z,9.75
2019-04-21T02:12:10.603Z,9.75
2019-04-21T02:14:46.346Z,9.69
2019-04-21T02:17:13.237Z,9.63
2019-04-21T02:19:35.998Z,9.59
2019-04-21T02:22:04.592Z,9.58
2019-04-21T02:24:51.558Z,9.58
2019-04-21T02:27:14.828Z,9.56
2019-04-21T02:29:49.014Z,9.53
2019-04-21T02:32:24.727Z,9.52
2019-04-21T02:37:36.764Z,9.46
2019-04-21T02:40:05.123Z,9.42
2019-04-21T02:42:27.828Z,9.39
2019-04-21T02:45:00.390Z,9.39
2019-04-21T02:50:09.658Z,9.30
2019-04-21T02:52:35.614Z,9.23
2019-04-21T02:55:03.305Z,9.20
2019-04-21T02:57:51.428Z,9.15
2019-04-21T03:02:47.648Z,9.09
2019-04-21T03:05:32.029Z,9.06
2019-04-21T03:07:54.927Z,9.05
2019-04-21T03:10:26.267Z,9.03
2019-04-21T03:12:53.055Z,9.00
2019-04-21T03:18:01.768Z,8.99
2019-04-21T03:20:27.413Z,8.96
2019-04-21T03:23:00.141Z,8.96
2019-04-21T03:30:55.937Z,8.90
2019-04-21T03:38:05.768Z,8.83
2019-04-21T03:40:32.376Z,8.75
2019-04-21T03:43:04.915Z,8.70
2019-04-21T03:48:11.425Z,8.60
2019-04-21T03:50:33.744Z,8.53
2019-04-21T03:53:11.819Z,8.41
2019-04-21T04:01:00.603Z,8.23
2019-04-21T04:06:28.557Z,8.18
2019-04-21T04:09:19.460Z,8.17
2019-04-21T04:16:50.344Z,8.17
2019-04-21T04:19:18.683Z,8.21
2019-04-21T04:25:19.350Z,8.20
2019-04-21T04:30:34.022Z,8.16
2019-04-21T04:39:36.639Z,8.03
2019-04-21T04:45:26.614Z,8.07
2019-04-21T04:47:56.421Z,8.07
2019-04-21T04:50:20.130Z,8.11
2019-04-21T04:52:44.401Z,8.14
2019-04-21T04:55:18.974Z,8.13
2019-04-21T05:01:32.910Z,7.94
2019-04-21T05:04:30.394Z,7.72
2019-04-21T05:06:51.306Z,7.54
2019-04-21T05:09:33.083Z,7.51
2019-04-21T05:16:56.021Z,7.79
2019-04-21T05:19:20.845Z,7.87
2019-04-21T05:22:17.174Z,7.96
2019-04-21T05:24:44.022Z,8.06
2019-04-21T05:27:25.002Z,8.09
2019-04-21T05:30:17.352Z,8.12
2019-04-21T05:32:52.512Z,8.15
2019-04-21T05:35:43.691Z,8.20
2019-04-21T05:38:10.423Z,8.23
2019-04-21T05:40:35.964Z,8.26
2019-04-21T05:43:07.954Z,8.28
2019-04-21T05:45:50.139Z,8.32
2019-04-21T05:48:26.942Z,8.38
2019-04-21T05:50:49.332Z,8.45
2019-04-21T05:53:26.825Z,8.50
2019-04-21T05:58:21.355Z,8.64
2019-04-21T06:03:32.314Z,8.75
2019-04-21T06:06:00.385Z,8.82
2019-04-21T06:08:30.864Z,8.89
2019-04-21T06:11:18.670Z,8.96
2019-04-21T06:13:43.786Z,9.02
2019-04-21T06:16:24.178Z,9.10
2019-04-21T06:18:43.428Z,9.19
2019-04-21T06:21:06.424Z,9.28
2019-04-21T06:23:35.924Z,9.38
2019-04-21T06:41:53.194Z,9.95
2019-04-21T06:44:23.636Z,10.05
2019-04-21T06:50:29.959Z,10.28
2019-04-21T06:53:35.766Z,10.41
2019-04-21T07:13:29.383Z,11.29
2019-04-21T07:16:07.269Z,11.43
2019-04-21T07:18:47.436Z,11.61
2019-04-21T07:21:13.852Z,11.81
2019-04-21T07:23:47.210Z,12.01
2019-04-21T07:26:15.370Z,12.20
2019-04-21T07:28:47.966Z,12.37
2019-04-21T07:31:25.219Z,12.51
2019-04-21T07:34:30.449Z,12.68
2019-04-21T07:36:56.131Z,12.86
2019-04-21T07:42:23.806Z,13.21
2019-04-21T07:45:03.357Z,13.40
2019-04-21T07:47:55.481Z,13.54
2019-04-21T07:53:58.349Z,13.94
2019-04-21T07:56:09.461Z,14.97
2019-04-21T07:59:13.607Z,16.03
2019-04-21T08:01:45.436Z,16.94
2019-04-21T08:04:38.195Z,17.84
2019-04-21T08:16:34.102Z,20.42
2019-04-21T08:19:13.085Z,20.73
2019-04-21T08:25:01.083Z,21.05
2019-04-21T08:27:42.911Z,21.06
2019-04-21T08:30:11.653Z,20.96
2019-04-21T08:32:57.117Z,20.90
2019-04-21T08:41:19.585Z,21.32
2019-04-21T08:44:04.956Z,21.59
2019-04-21T08:46:52.794Z,22.13
2019-04-21T08:49:41.560Z,22.90
2019-04-21T08:52:36.843Z,23.60
2019-04-21T08:55:19.834Z,23.82
2019-04-21T08:58:18.909Z,23.60
2019-04-21T09:00:51.400Z,23.07
2019-04-21T09:03:41.410Z,22.53
2019-04-21T09:09:11.763Z,21.87
2019-04-21T09:11:49.926Z,21.74
2019-04-21T09:15:08.395Z,21.74
2019-04-21T09:17:00.440Z,21.73
2019-04-21T09:22:05.733Z,21.71
2019-04-21T09:24:58.268Z,21.77
2019-04-21T09:27:35.655Z,21.84
2019-04-21T09:29:57.708Z,21.85
2019-04-21T09:32:33.039Z,21.88
2019-04-21T09:38:13.266Z,21.97
2019-04-21T09:40:40.336Z,21.99
2019-04-21T09:43:10.312Z,22.04
2019-04-21T09:45:45.319Z,22.03
2019-04-21T09:48:19.003Z,21.99
2019-04-21T09:50:45.967Z,22.17
2019-04-21T09:56:31.525Z,22.22
2019-04-21T09:59:04.847Z,22.24
2019-04-21T10:01:30.825Z,22.33
2019-04-21T10:04:01.668Z,22.38
2019-04-21T10:06:47.555Z,22.46
2019-04-21T10:09:07.824Z,22.64
2019-04-21T10:11:37.637Z,22.70
2019-04-21T10:14:09.778Z,22.69
2019-04-21T10:16:52.173Z,22.74
2019-04-21T10:19:42.009Z,22.81
2019-04-21T10:22:12.512Z,22.81
2019-04-21T10:24:42.504Z,22.86
2019-04-21T10:27:17.188Z,22.94
2019-04-21T10:29:53.858Z,23.02
2019-04-21T10:32:28.188Z,23.10
2019-04-21T10:34:57.047Z,23.18
2019-04-21T10:37:47.332Z,23.20
2019-04-21T10:40:09.628Z,23.18
2019-04-21T10:42:58.361Z,23.23
2019-04-21T10:45:28.652Z,23.32
2019-04-21T10:48:00.953Z,23.38
2019-04-21T10:50:31.391Z,23.41
2019-04-21T10:53:20.935Z,23.49
2019-04-21T10:56:06.466Z,23.62
2019-04-21T10:58:34.353Z,23.67
2019-04-21T11:01:25.152Z,23.70
2019-04-21T11:04:21.172Z,23.74
2019-04-21T11:06:44.396Z,23.71
2019-04-21T11:09:26.470Z,23.68
2019-04-21T11:14:56.903Z,23.80
2019-04-21T11:17:34.839Z,23.93
2019-04-21T11:22:55.606Z,23.85
2019-04-21T11:25:48.184Z,23.85
2019-04-21T11:28:22.927Z,23.83
2019-04-21T11:31:11.232Z,23.94
2019-04-21T11:34:00.913Z,24.08
2019-04-21T11:36:27.004Z,24.17
2019-04-21T11:39:09.831Z,24.21
2019-04-21T11:41:45.741Z,24.12
2019-04-21T11:44:24.655Z,24.09
2019-04-21T11:47:10.574Z,24.23
2019-04-21T11:50:17.197Z,24.21
2019-04-21T11:52:47.326Z,24.12
2019-04-21T11:55:22.927Z,24.09
2019-04-21T11:57:53.491Z,24.10
2019-04-21T12:00:24.819Z,24.18
2019-04-21T12:03:15.239Z,24.22
2019-04-21T12:05:55.459Z,24.28
2019-04-21T12:08:34.367Z,24.39
2019-04-21T12:11:03.459Z,24.46
2019-04-21T12:13:40.415Z,24.47
2019-04-21T12:16:14.990Z,24.51
2019-04-21T12:19:03.370Z,24.62
2019-04-21T12:21:25.177Z,24.75
2019-04-21T12:23:54.938Z,24.78
2019-04-21T12:26:24.199Z,24.76
2019-04-21T12:31:49.822Z,24.92
2019-04-21T12:34:25.932Z,25.01
2019-04-21T12:36:55.145Z,24.95
2019-04-21T12:39:36.911Z,24.92
2019-04-21T12:42:34.453Z,24.86
2019-04-21T12:45:09.848Z,24.96
2019-04-21T12:47:39.759Z,24.91
2019-04-21T12:50:10.959Z,24.89
2019-04-21T12:52:40.370Z,24.89
2019-04-21T12:55:13.534Z,24.82
2019-04-21T12:57:43.529Z,24.85
2019-04-21T13:00:22.727Z,24.96
2019-04-21T13:03:01.679Z,24.93
2019-04-21T13:05:35.785Z,24.90
2019-04-21T13:08:19.780Z,24.97
2019-04-21T13:11:17.552Z,25.00
2019-04-21T13:14:06.103Z,25.00
2019-04-21T13:16:37.166Z,25.01
2019-04-21T13:19:09.243Z,25.06
2019-04-21T13:21:40.832Z,25.06
2019-04-21T13:27:22.907Z,25.25
2019-04-21T13:34:06.133Z,25.68
2019-04-21T13:36:35.974Z,25.82
2019-04-21T13:39:53.679Z,25.68
2019-04-21T13:42:19.646Z,25.54
2019-04-21T13:44:57.200Z,25.47
2019-04-21T13:50:46.944Z,25.47
2019-04-21T13:56:47.610Z,25.58
2019-04-21T14:08:00.869Z,25.57
2019-04-21T14:11:09.330Z,25.61
2019-04-21T14:14:28.365Z,25.62
2019-04-21T14:17:08.904Z,25.63
2019-04-21T14:22:35.897Z,25.70
2019-04-21T14:25:15.129Z,25.79
2019-04-21T14:27:52.094Z,25.75
2019-04-21T14:30:28.313Z,25.74
2019-04-21T14:33:04.463Z,25.70
2019-04-21T14:35:43.074Z,25.65
2019-04-21T14:38:20.727Z,25.60
2019-04-21T14:40:57.541Z,25.60
2019-04-21T14:43:34.087Z,25.60
2019-04-21T14:46:11.538Z,25.58
2019-04-21T14:52:10.762Z,25.56
2019-04-21T14:54:51.037Z,25.51
2019-04-21T14:57:27.280Z,25.57
2019-04-21T15:00:13.369Z,25.64
2019-04-21T15:06:25.541Z,25.65
2019-04-21T15:09:00.976Z,25.70
2019-04-21T15:11:34.350Z,25.64
2019-04-21T15:14:04.110Z,25.56
2019-04-21T15:16:38.692Z,25.56
2019-04-21T15:19:17.991Z,25.51
2019-04-21T15:21:52.413Z,25.44
2019-04-21T15:24:34.273Z,25.42
2019-04-21T15:27:09.226Z,25.44
2019-04-21T15:29:42.792Z,25.47
2019-04-21T15:32:16.868Z,25.49
2019-04-21T15:54:26.952Z,25.41
2019-04-21T15:57:00.813Z,25.41
2019-04-21T16:02:30.684Z,25.28
2019-04-21T16:05:04.791Z,25.33
2019-04-21T16:07:36.192Z,25.42
2019-04-21T16:10:13.051Z,25.43
2019-04-21T16:12:53.885Z,25.46
2019-04-21T16:18:09.993Z,25.38
2019-04-21T16:20:43.904Z,25.30
2019-04-21T16:23:24.613Z,25.27
2019-04-21T16:26:08.744Z,25.25
2019-04-21T16:28:59.814Z,25.19
2019-04-21T16:31:36.343Z,25.17
2019-04-21T16:36:43.506Z,25.24
2019-04-21T16:39:13.511Z,25.20
2019-04-21T16:41:52.102Z,25.15
2019-04-21T16:44:27.371Z,25.12
2019-04-21T16:46:59.314Z,25.12
2019-04-21T16:50:09.846Z,25.12
2019-04-21T16:52:32.109Z,25.20
2019-04-21T16:58:30.755Z,25.19
2019-04-21T17:01:11.988Z,25.14
2019-04-21T17:07:18.046Z,24.80
2019-04-21T17:10:12.718Z,24.58
2019-04-21T17:16:16.846Z,24.21
2019-04-21T17:22:28.131Z,24.06
2019-04-21T17:24:58.265Z,23.88
2019-04-21T17:27:29.218Z,23.72
2019-04-21T17:30:22.357Z,23.61
2019-04-21T17:32:59.601Z,23.54
2019-04-21T17:35:53.801Z,23.46
2019-04-21T17:38:37.314Z,23.39
2019-04-21T17:41:23.224Z,23.32
2019-04-21T17:44:02.427Z,23.24
2019-04-21T17:50:02.616Z,23.11
2019-04-21T17:52:42.854Z,23.00
2019-04-21T17:55:18.433Z,22.93
2019-04-21T17:58:52.462Z,22.87
2019-04-21T18:01:35.869Z,22.76
2019-04-21T18:04:10.626Z,22.71
2019-04-21T18:10:07.637Z,22.61
2019-04-21T18:12:16.623Z,22.53
2019-04-21T18:14:32.835Z,22.42
2019-04-21T18:17:02.494Z,22.35
2019-04-21T18:19:36.368Z,22.27
2019-04-21T18:22:17.479Z,22.17
2019-04-21T18:25:10.462Z,22.07
2019-04-21T18:30:40.373Z,21.83
2019-04-21T18:33:14.269Z,21.69
2019-04-21T18:36:03.623Z,21.57
2019-04-21T18:39:00.007Z,21.47
2019-04-21T18:41:19.896Z,21.37
2019-04-21T18:44:38.796Z,21.27
2019-04-21T18:47:13.888Z,21.16
2019-04-21T18:52:56.364Z,20.93
2019-04-21T18:55:29.448Z,20.72
2019-04-21T18:57:55.032Z,20.56
2019-04-21T19:00:31.777Z,20.41
2019-04-21T19:03:02.020Z,20.25
2019-04-21T19:08:48.465Z,20.01
2019-04-21T19:11:25.421Z,19.87
2019-04-21T19:14:28.959Z,19.75
2019-04-21T19:16:53.957Z,19.57
2019-04-21T19:19:41.189Z,19.40
2019-04-21T19:22:00.687Z,19.30
2019-04-21T19:24:32.100Z,19.25
2019-04-21T19:29:28.736Z,19.10
2019-04-21T19:32:05.742Z,19.02
2019-04-21T19:34:18.778Z,18.95
2019-04-21T19:36:51.295Z,18.88
2019-04-21T19:39:27.068Z,18.79
2019-04-21T19:41:58.611Z,18.69
2019-04-21T19:44:35.260Z,18.59
2019-04-21T19:47:03.889Z,18.51
2019-04-21T19:49:40.006Z,18.43
2019-04-21T19:51:57.481Z,18.32
2019-04-21T19:54:27.692Z,18.21
2019-04-21T19:56:51.441Z,18.10
2019-04-21T19:59:30.699Z,17.96
2019-04-21T20:01:51.472Z,17.85
2019-04-21T20:04:20.601Z,17.77
2019-04-21T20:07:01.711Z,17.66
2019-04-21T20:09:37.080Z,17.57
2019-04-21T20:12:06.635Z,17.47
2019-04-21T20:15:00.676Z,17.35
2019-04-21T20:17:08.925Z,17.24
2019-04-21T20:19:24.815Z,17.13
2019-04-21T20:21:54.366Z,16.99
2019-04-21T20:24:28.297Z,16.91
2019-04-21T20:27:02.265Z,16.84
2019-04-21T20:32:55.935Z,16.62
2019-04-21T20:35:35.208Z,16.46
2019-04-21T20:37:52.566Z,16.34
2019-04-21T20:40:25.100Z,16.28
2019-04-21T20:43:07.155Z,16.18
2019-04-21T20:45:33.486Z,16.08
2019-04-21T20:47:51.643Z,16.00
2019-04-21T20:50:31.077Z,15.94
2019-04-21T20:53:06.117Z,15.89
2019-04-21T20:55:35.484Z,15.82
2019-04-21T20:58:30.885Z,15.79
2019-04-21T21:06:45.557Z,15.66
2019-04-21T21:09:14.082Z,15.59
2019-04-21T21:12:06.607Z,15.53
2019-04-21T21:14:16.126Z,15.46
2019-04-21T21:16:50.577Z,15.40
2019-04-21T21:19:22.078Z,15.35
2019-04-21T21:21:49.968Z,15.27
2019-04-21T21:24:22.198Z,15.21
2019-04-21T21:26:56.203Z,15.17
2019-04-21T21:29:23.432Z,15.09
2019-04-21T21:31:55.562Z,15.01
2019-04-21T21:34:27.539Z,14.96
2019-04-21T21:36:55.054Z,14.91
2019-04-21T21:39:31.811Z,14.85
2019-04-21T21:41:48.562Z,14.78
2019-04-21T21:44:17.859Z,14.71
2019-04-21T21:46:56.954Z,14.67
2019-04-21T21:49:28.359Z,14.61
2019-04-21T21:51:56.857Z,14.55
2019-04-21T21:54:15.939Z,14.50
2019-04-21T21:56:44.761Z,14.45
2019-04-21T21:59:20.680Z,14.39
2019-04-21T22:01:51.897Z,14.38
2019-04-21T22:04:24.174Z,14.39
2019-04-21T22:06:55.354Z,14.34
2019-04-21T22:09:18.603Z,14.27
2019-04-21T22:11:49.550Z,14.19
2019-04-21T22:14:25.849Z,14.08
2019-04-21T22:17:07.536Z,14.00
2019-04-21T22:19:48.089Z,13.94
2019-04-21T22:22:11.496Z,13.86
2019-04-21T22:24:38.865Z,13.79
2019-04-21T22:26:52.779Z,13.71
2019-04-21T22:29:23.529Z,13.60
2019-04-21T22:32:05.534Z,13.54
2019-04-21T22:34:31.588Z,13.51
2019-04-21T22:37:07.298Z,13.49
2019-04-21T22:39:45.949Z,13.46
2019-04-21T22:42:05.535Z,13.46
2019-04-21T22:44:28.140Z,13.42
2019-04-21T22:47:07.231Z,13.42
2019-04-21T22:49:28.643Z,13.41
2019-04-21T22:52:03.968Z,13.42
2019-04-21T22:54:34.323Z,13.45
2019-04-21T22:57:07.345Z,13.41
2019-04-21T22:59:32.030Z,13.38
2019-04-21T23:02:01.546Z,13.35
2019-04-21T23:04:36.812Z,13.33
2019-04-21T23:07:07.645Z,13.31
2019-04-21T23:09:33.047Z,13.29
2019-04-21T23:12:03.262Z,13.25
2019-04-21T23:14:45.322Z,13.22
2019-04-21T23:17:24.196Z,13.21
2019-04-21T23:19:46.037Z,13.15
2019-04-21T23:22:21.394Z,13.12
2019-04-21T23:24:59.132Z,13.09
2019-04-21T23:27:20.349Z,13.06
2019-04-21T23:30:00.534Z,13.02
2019-04-21T23:32:23.542Z,13.01
2019-04-21T23:34:42.448Z,12.97
2019-04-21T23:37:17.795Z,12.93
2019-04-21T23:39:43.483Z,12.91
2019-04-21T23:42:22.551Z,12.88
2019-04-21T23:44:49.160Z,12.86
2019-04-21T23:47:30.325Z,12.81
2019-04-21T23:49:55.782Z,12.80
2019-04-21T23:52:17.839Z,12.77
2019-04-21T23:54:47.366Z,12.76
2019-04-21T23:57:26.909Z,12.73
2019-04-21T23:59:53.467Z,12.70
